sensor_id;sensor_type;location;lat;lon;timestamp;P1;durP1;ratioP1;P2;durP2;ratioP2
30337;SDS011;17143;51.888;5.408;2023-05-07T00:07:25;3.30;;;3.00;;
30337;SDS011;17143;51.888;5.408;2023-05-07T00:22:27;3.83;;;3.43;;
30337;SDS011;17143;51.888;5.408;2023-05-07T00:37:29;4.37;;;3.33;;
30337;SDS011;17143;51.888;5.408;2023-05-07T00:52:31;3.47;;;3.10;;
30337;SDS011;17143;51.888;5.408;2023-05-07T01:07:33;3.50;;;3.20;;
30337;SDS011;17143;51.888;5.408;2023-05-07T01:22:36;4.03;;;3.30;;
30337;SDS011;17143;51.888;5.408;2023-05-07T01:37:40;4.13;;;2.50;;
30337;SDS011;17143;51.888;5.408;2023-05-07T01:52:43;2.90;;;2.13;;
30337;SDS011;17143;51.888;5.408;2023-05-07T02:07:45;3.63;;;2.60;;
30337;SDS011;17143;51.888;5.408;2023-05-07T02:22:49;3.33;;;2.70;;
30337;SDS011;17143;51.888;5.408;2023-05-07T02:37:51;3.83;;;2.40;;
30337;SDS011;17143;51.888;5.408;2023-05-07T02:52:54;4.10;;;2.50;;
30337;SDS011;17143;51.888;5.408;2023-05-07T03:07:56;5.57;;;3.33;;
30337;SDS011;17143;51.888;5.408;2023-05-07T03:22:58;4.20;;;3.73;;
30337;SDS011;17143;51.888;5.408;2023-05-07T03:38:00;5.13;;;3.93;;
30337;SDS011;17143;51.888;5.408;2023-05-07T03:53:05;5.40;;;4.70;;
30337;SDS011;17143;51.888;5.408;2023-05-07T04:08:12;7.20;;;5.63;;
30337;SDS011;17143;51.888;5.408;2023-05-07T04:23:17;6.80;;;5.40;;
30337;SDS011;17143;51.888;5.408;2023-05-07T04:38:20;6.00;;;5.07;;
30337;SDS011;17143;51.888;5.408;2023-05-07T04:53:25;7.27;;;4.93;;
30337;SDS011;17143;51.888;5.408;2023-05-07T05:08:29;6.40;;;5.17;;
30337;SDS011;17143;51.888;5.408;2023-05-07T05:23:32;8.03;;;5.67;;
30337;SDS011;17143;51.888;5.408;2023-05-07T05:38:35;6.97;;;5.40;;
30337;SDS011;17143;51.888;5.408;2023-05-07T05:53:37;6.43;;;5.60;;
30337;SDS011;17143;51.888;5.408;2023-05-07T06:08:41;6.60;;;5.50;;
30337;SDS011;17143;51.888;5.408;2023-05-07T06:23:44;6.80;;;5.10;;
30337;SDS011;17143;51.888;5.408;2023-05-07T06:38:46;7.13;;;5.80;;
30337;SDS011;17143;51.888;5.408;2023-05-07T06:53:50;7.47;;;5.87;;
30337;SDS011;17143;51.888;5.408;2023-05-07T07:08:52;6.40;;;5.33;;
30337;SDS011;17143;51.888;5.408;2023-05-07T07:23:55;6.10;;;5.17;;
30337;SDS011;17143;51.888;5.408;2023-05-07T07:38:57;6.77;;;5.03;;
30337;SDS011;17143;51.888;5.408;2023-05-07T07:53:59;7.70;;;5.30;;
30337;SDS011;17143;51.888;5.408;2023-05-07T08:09:02;6.43;;;5.10;;
30337;SDS011;17143;51.888;5.408;2023-05-07T08:24:05;5.87;;;4.77;;
30337;SDS011;17143;51.888;5.408;2023-05-07T08:39:07;5.83;;;5.10;;
30337;SDS011;17143;51.888;5.408;2023-05-07T08:54:10;5.70;;;4.80;;
30337;SDS011;17143;51.888;5.408;2023-05-07T09:09:15;7.30;;;6.00;;
30337;SDS011;17143;51.888;5.408;2023-05-07T09:24:18;6.57;;;5.23;;
30337;SDS011;17143;51.888;5.408;2023-05-07T09:39:21;8.57;;;6.00;;
30337;SDS011;17143;51.888;5.408;2023-05-07T09:54:23;7.93;;;6.10;;
30337;SDS011;17143;51.888;5.408;2023-05-07T10:09:29;7.80;;;6.13;;
30337;SDS011;17143;51.888;5.408;2023-05-07T10:24:32;7.67;;;5.93;;
30337;SDS011;17143;51.888;5.408;2023-05-07T10:39:36;9.20;;;5.63;;
30337;SDS011;17143;51.888;5.408;2023-05-07T10:54:39;6.87;;;5.60;;
30337;SDS011;17143;51.888;5.408;2023-05-07T11:10:01;8.03;;;5.77;;
30337;SDS011;17143;51.888;5.408;2023-05-07T11:25:27;6.63;;;5.27;;
30337;SDS011;17143;51.888;5.408;2023-05-07T11:40:49;5.73;;;4.57;;
30337;SDS011;17143;51.888;5.408;2023-05-07T11:55:53;8.90;;;5.10;;
30337;SDS011;17143;51.888;5.408;2023-05-07T12:10:55;8.00;;;5.83;;
30337;SDS011;17143;51.888;5.408;2023-05-07T12:25:57;8.57;;;5.53;;
30337;SDS011;17143;51.888;5.408;2023-05-07T12:41:00;9.20;;;5.20;;
30337;SDS011;17143;51.888;5.408;2023-05-07T12:56:02;9.17;;;5.20;;
30337;SDS011;17143;51.888;5.408;2023-05-07T13:11:07;6.80;;;4.97;;
30337;SDS011;17143;51.888;5.408;2023-05-07T13:26:10;9.17;;;4.33;;
30337;SDS011;17143;51.888;5.408;2023-05-07T13:41:13;3.97;;;2.70;;
30337;SDS011;17143;51.888;5.408;2023-05-07T13:56:15;3.77;;;1.27;;
30337;SDS011;17143;51.888;5.408;2023-05-07T14:11:17;3.33;;;1.77;;
30337;SDS011;17143;51.888;5.408;2023-05-07T14:26:19;4.43;;;2.90;;
30337;SDS011;17143;51.888;5.408;2023-05-07T14:41:21;2.77;;;2.03;;
30337;SDS011;17143;51.888;5.408;2023-05-07T14:56:24;2.40;;;2.20;;
30337;SDS011;17143;51.888;5.408;2023-05-07T15:11:26;0.80;;;0.73;;
30337;SDS011;17143;51.888;5.408;2023-05-07T15:26:28;5.90;;;2.07;;
30337;SDS011;17143;51.888;5.408;2023-05-07T15:41:30;0.83;;;0.47;;
30337;SDS011;17143;51.888;5.408;2023-05-07T15:56:32;2.13;;;0.20;;
30337;SDS011;17143;51.888;5.408;2023-05-07T16:11:34;0.40;;;0.30;;
30337;SDS011;17143;51.888;5.408;2023-05-07T16:26:36;1.03;;;0.93;;
30337;SDS011;17143;51.888;5.408;2023-05-07T16:41:38;0.80;;;0.80;;
30337;SDS011;17143;51.888;5.408;2023-05-07T16:56:40;0.70;;;0.70;;
30337;SDS011;17143;51.888;5.408;2023-05-07T17:11:42;0.73;;;0.63;;
30337;SDS011;17143;51.888;5.408;2023-05-07T17:26:44;1.40;;;0.83;;
30337;SDS011;17143;51.888;5.408;2023-05-07T17:41:48;0.80;;;0.80;;
30337;SDS011;17143;51.888;5.408;2023-05-07T17:56:50;2.13;;;1.03;;
30337;SDS011;17143;51.888;5.408;2023-05-07T18:11:52;0.30;;;0.30;;
30337;SDS011;17143;51.888;5.408;2023-05-07T18:26:54;0.50;;;0.50;;
30337;SDS011;17143;51.888;5.408;2023-05-07T18:41:57;0.70;;;0.70;;
30337;SDS011;17143;51.888;5.408;2023-05-07T18:56:59;0.90;;;0.80;;
30337;SDS011;17143;51.888;5.408;2023-05-07T19:12:01;0.90;;;0.90;;
30337;SDS011;17143;51.888;5.408;2023-05-07T19:27:03;1.50;;;1.30;;
30337;SDS011;17143;51.888;5.408;2023-05-07T19:42:05;1.47;;;1.37;;
30337;SDS011;17143;51.888;5.408;2023-05-07T19:57:07;2.10;;;1.50;;
30337;SDS011;17143;51.888;5.408;2023-05-07T20:12:10;2.77;;;1.60;;
30337;SDS011;17143;51.888;5.408;2023-05-07T20:27:12;2.27;;;2.07;;
30337;SDS011;17143;51.888;5.408;2023-05-07T20:42:14;2.20;;;1.97;;
30337;SDS011;17143;51.888;5.408;2023-05-07T20:57:16;2.23;;;1.87;;
30337;SDS011;17143;51.888;5.408;2023-05-07T21:12:18;2.73;;;1.70;;
30337;SDS011;17143;51.888;5.408;2023-05-07T21:27:21;2.40;;;1.80;;
30337;SDS011;17143;51.888;5.408;2023-05-07T21:42:23;2.30;;;2.10;;
30337;SDS011;17143;51.888;5.408;2023-05-07T21:57:25;2.33;;;2.13;;
30337;SDS011;17143;51.888;5.408;2023-05-07T22:12:27;3.07;;;2.57;;
30337;SDS011;17143;51.888;5.408;2023-05-07T22:27:29;3.73;;;3.10;;
30337;SDS011;17143;51.888;5.408;2023-05-07T22:42:31;2.80;;;2.60;;
30337;SDS011;17143;51.888;5.408;2023-05-07T22:57:33;2.90;;;2.50;;
30337;SDS011;17143;51.888;5.408;2023-05-07T23:12:35;3.07;;;2.67;;
30337;SDS011;17143;51.888;5.408;2023-05-07T23:27:37;3.50;;;2.50;;
30337;SDS011;17143;51.888;5.408;2023-05-07T23:42:39;3.20;;;2.90;;
30337;SDS011;17143;51.888;5.408;2023-05-07T23:57:41;3.53;;;3.10;;
